Time;durP1;ratioP1;P1;durP2;ratioP2;P2;SDS_P1;SDS_P2;PMS_P1;PMS_P2;Temp;Humidity;BMP_temperature;BMP_pressure;BME280_temperature;BME280_humidity;BME280_pressure;Samples;Min_cycle;Max_cycle;Signal;HPM_P1;HPM_P2
2022/12/31 00:00:39;;;;;;;2.90;0.90;;;23.70;52.00;;;;;;5057155;28;20028;-69
2022/12/31 00:03:07;;;;;;;2.50;1.02;;;23.70;52.00;;;;;;5059785;28;20040;-70
2022/12/31 00:05:34;;;;;;;1.65;0.90;;;23.70;52.00;;;;;;5053040;28;20108;-69
2022/12/31 00:08:01;;;;;;;2.25;0.98;;;23.70;51.90;;;;;;5052715;28;20029;-70
2022/12/31 00:10:28;;;;;;;1.88;0.93;;;23.70;51.90;;;;;;5051052;28;20392;-69
2022/12/31 00:12:53;;;;;;;2.15;0.95;;;23.70;52.00;;;;;;5049082;28;20442;-70
2022/12/31 00:15:19;;;;;;;1.63;0.80;;;23.70;52.00;;;;;;5055757;28;20048;-71
2022/12/31 00:17:45;;;;;;;2.20;1.08;;;23.70;52.00;;;;;;5035905;28;20029;-71
2022/12/31 00:20:11;;;;;;;2.38;1.00;;;23.70;52.00;;;;;;5046152;28;20428;-71
2022/12/31 00:22:36;;;;;;;2.17;1.00;;;23.70;52.00;;;;;;5049512;28;20037;-71
2022/12/31 00:25:03;;;;;;;2.08;0.90;;;23.70;52.00;;;;;;5034390;28;20396;-71
2022/12/31 00:27:31;;;;;;;2.83;1.02;;;23.70;52.00;;;;;;5056679;28;20068;-71
2022/12/31 00:29:57;;;;;;;2.13;0.95;;;23.70;52.00;;;;;;5053562;28;20079;-71
2022/12/31 00:32:24;;;;;;;2.00;1.00;;;23.70;51.90;;;;;;5049366;28;20025;-70
2022/12/31 00:34:49;;;;;;;1.55;0.85;;;23.70;51.90;;;;;;5050898;28;20139;-71
2022/12/31 00:37:15;;;;;;;1.90;0.90;;;23.70;52.00;;;;;;5046483;28;20129;-71
2022/12/31 00:39:40;;;;;;;1.63;0.90;;;23.70;51.90;;;;;;5046006;28;20020;-72
2022/12/31 00:42:06;;;;;;;1.52;0.80;;;23.70;51.80;;;;;;5056682;28;20016;-70
2022/12/31 00:44:32;;;;;;;1.58;0.98;;;23.70;51.70;;;;;;5058671;28;20029;-70
2022/12/31 00:46:57;;;;;;;2.10;1.00;;;23.70;51.70;;;;;;5049094;28;20540;-70
2022/12/31 00:49:23;;;;;;;2.67;0.90;;;23.70;51.70;;;;;;5048557;28;20129;-71
2022/12/31 00:51:49;;;;;;;2.60;1.08;;;23.70;51.70;;;;;;5035347;28;20177;-70
2022/12/31 00:54:14;;;;;;;2.08;0.80;;;23.70;51.80;;;;;;5044250;28;20131;-70
2022/12/31 00:56:40;;;;;;;1.45;0.80;;;23.70;51.80;;;;;;5058796;28;20020;-70
2022/12/31 00:59:06;;;;;;;2.28;1.00;;;23.70;51.70;;;;;;5054788;28;20021;-71
2022/12/31 01:01:34;;;;;;;1.42;0.80;;;23.70;51.60;;;;;;5052384;28;20033;-70
2022/12/31 01:04:06;;;;;;;1.70;0.90;;;23.70;51.80;;;;;;5047301;28;20378;-70
2022/12/31 01:06:32;;;;;;;1.85;0.80;;;23.70;51.70;;;;;;5040591;28;20032;-69
2022/12/31 01:08:57;;;;;;;1.77;0.90;;;23.70;51.70;;;;;;5048734;28;20083;-70
2022/12/31 01:11:27;;;;;;;2.03;0.88;;;23.70;51.70;;;;;;5061316;28;20027;-72
2022/12/31 01:14:00;;;;;;;1.20;0.70;;;23.70;51.50;;;;;;5051972;28;20025;-72
2022/12/31 01:16:30;;;;;;;1.88;0.80;;;23.70;51.50;;;;;;5044064;28;20432;-70
2022/12/31 01:18:57;;;;;;;;;;;23.70;51.40;;;;;;5041986;28;20377;-70
2022/12/31 01:21:22;;;;;;;1.98;0.80;;;23.70;51.60;;;;;;5049706;28;19998;-69
2022/12/31 01:23:48;;;;;;;1.67;0.73;;;23.70;51.40;;;;;;5052123;28;20105;-70
2022/12/31 01:26:15;;;;;;;2.67;1.00;;;23.70;51.50;;;;;;5050189;28;20055;-69
2022/12/31 01:28:41;;;;;;;2.05;0.90;;;23.80;51.60;;;;;;5050615;28;20029;-70
2022/12/31 01:31:09;;;;;;;1.52;0.70;;;23.80;51.50;;;;;;5048807;28;20021;-71
2022/12/31 01:33:35;;;;;;;2.22;1.00;;;23.70;51.50;;;;;;5048978;28;20081;-69
2022/12/31 01:36:34;;;;;;;2.70;1.02;;;23.70;51.40;;;;;;5040258;28;20111;-69
2022/12/31 01:39:01;;;;;;;1.57;0.70;;;23.70;51.30;;;;;;4994771;28;20488;-71
2022/12/31 01:41:30;;;;;;;1.17;0.80;;;23.80;51.40;;;;;;5023766;28;20025;-70
2022/12/31 01:43:57;;;;;;;1.30;0.80;;;23.70;51.30;;;;;;5048422;28;20029;-69
2022/12/31 01:46:31;;;;;;;1.88;1.02;;;23.80;51.50;;;;;;5040872;28;20029;-70
2022/12/31 01:49:01;;;;;;;2.55;0.88;;;23.70;51.40;;;;;;5044464;28;20485;-70
2022/12/31 01:51:32;;;;;;;2.20;0.88;;;23.70;51.30;;;;;;5053129;28;20480;-71
2022/12/31 01:53:59;;;;;;;2.50;0.77;;;23.80;51.30;;;;;;5060699;28;20083;-71
2022/12/31 01:56:25;;;;;;;1.83;0.80;;;23.80;51.20;;;;;;5055804;28;20032;-71
2022/12/31 01:58:54;;;;;;;1.40;0.70;;;23.80;51.10;;;;;;5047753;28;20110;-72
2022/12/31 02:01:29;;;;;;;0.98;0.60;;;23.80;51.20;;;;;;5051436;28;20056;-71
2022/12/31 02:03:55;;;;;;;1.38;0.88;;;23.80;51.10;;;;;;5054445;28;20117;-70
2022/12/31 02:06:26;;;;;;;1.60;0.80;;;23.80;51.00;;;;;;5039403;28;20021;-71
2022/12/31 02:08:51;;;;;;;1.67;0.70;;;23.80;50.80;;;;;;5053429;28;20079;-70
2022/12/31 02:11:25;;;;;;;0.63;0.57;;;23.80;50.90;;;;;;5039468;28;20026;-70
2022/12/31 02:13:52;;;;;;;1.17;0.57;;;23.70;50.80;;;;;;5052976;28;20033;-70
2022/12/31 02:16:40;;;;;;;0.65;0.50;;;23.70;50.80;;;;;;5062484;28;20071;-71
2022/12/31 02:19:17;;;;;;;1.17;0.60;;;23.70;50.90;;;;;;5036527;28;20055;-70
2022/12/31 02:21:48;;;;;;;1.15;0.70;;;23.70;51.00;;;;;;5042837;28;20340;-71
2022/12/31 02:24:32;;;;;;;1.00;0.68;;;23.60;50.70;;;;;;5057596;28;20448;-70
2022/12/31 02:27:15;;;;;;;1.05;0.52;;;23.60;50.80;;;;;;5055311;28;20024;-70
2022/12/31 02:29:59;;;;;;;1.20;0.70;;;23.60;50.90;;;;;;5049203;28;20116;-72
2022/12/31 02:32:35;;;;;;;1.02;0.63;;;23.50;51.00;;;;;;5060027;28;20029;-72
2022/12/31 02:35:26;;;;;;;1.35;0.70;;;23.50;51.00;;;;;;5056859;28;20557;-71
2022/12/31 02:37:56;;;;;;;0.90;0.60;;;23.50;51.00;;;;;;5048350;28;20094;-70
2022/12/31 02:40:22;;;;;;;1.48;0.80;;;23.40;50.90;;;;;;5048596;28;20054;-70
2022/12/31 02:42:48;;;;;;;0.95;0.60;;;23.40;50.80;;;;;;5050654;28;20111;-71
2022/12/31 02:45:18;;;;;;;1.05;0.60;;;23.40;50.70;;;;;;5051873;28;20164;-70
2022/12/31 02:47:50;;;;;;;0.82;0.60;;;23.40;50.60;;;;;;5043290;28;20091;-70
2022/12/31 02:50:27;;;;;;;1.15;0.60;;;23.40;50.80;;;;;;5054034;28;20097;-70
2022/12/31 02:53:24;;;;;;;1.08;0.80;;;23.30;50.90;;;;;;5062979;28;20375;-70
2022/12/31 02:56:04;;;;;;;0.93;0.60;;;23.20;50.90;;;;;;5048216;28;20046;-70
2022/12/31 03:04:32;;;;;;;0.88;0.60;;;23.20;51.00;;;;;;5057107;28;20036;-70
2022/12/31 03:07:06;;;;;;;0.70;0.60;;;23.20;51.00;;;;;;5048593;28;20032;-70
2022/12/31 03:09:33;;;;;;;0.90;0.60;;;23.10;50.90;;;;;;5055174;28;20107;-69
2022/12/31 03:14:44;;;;;;;1.00;0.70;;;23.00;51.00;;;;;;5053063;28;20063;-70
2022/12/31 03:17:10;;;;;;;1.17;0.70;;;23.00;51.20;;;;;;5058644;28;20129;-70
2022/12/31 03:22:26;;;;;;;1.23;0.63;;;23.00;51.30;;;;;;5049990;28;20040;-69
2022/12/31 03:27:36;;;;;;;0.90;0.60;;;22.90;51.20;;;;;;5048245;28;20036;-72
2022/12/31 03:30:03;;;;;;;1.30;0.63;;;22.90;51.20;;;;;;5043911;28;20024;-69
2022/12/31 03:32:29;;;;;;;1.02;0.50;;;22.90;51.20;;;;;;5053754;28;20132;-71
2022/12/31 03:34:54;;;;;;;0.90;0.55;;;22.90;51.30;;;;;;5058711;28;20483;-70
2022/12/31 03:37:20;;;;;;;1.33;0.60;;;22.80;51.20;;;;;;5040382;28;20024;-70
2022/12/31 03:39:46;;;;;;;0.95;0.55;;;22.80;51.20;;;;;;5039646;28;20021;-70
2022/12/31 03:42:11;;;;;;;0.77;0.68;;;22.80;51.30;;;;;;5038665;28;20024;-70
2022/12/31 03:44:37;;;;;;;0.93;0.50;;;22.80;51.40;;;;;;5044905;28;20591;-70
2022/12/31 03:47:02;;;;;;;1.13;0.70;;;22.70;51.30;;;;;;5044661;28;20162;-70
2022/12/31 03:49:28;;;;;;;1.00;0.60;;;22.70;51.50;;;;;;5054908;28;20048;-70
2022/12/31 03:51:54;;;;;;;0.52;0.50;;;22.70;51.40;;;;;;5038164;28;20029;-70
2022/12/31 03:54:19;;;;;;;1.67;0.73;;;22.70;51.40;;;;;;5047970;28;20024;-70
2022/12/31 03:56:45;;;;;;;0.70;0.50;;;22.60;51.80;;;;;;5055210;28;21058;-70
2022/12/31 03:59:10;;;;;;;0.80;0.50;;;22.60;51.40;;;;;;5053885;28;20125;-69
2022/12/31 04:01:36;;;;;;;0.80;0.50;;;22.60;51.50;;;;;;5046832;28;20499;-71
2022/12/31 04:04:02;;;;;;;0.95;0.50;;;22.60;51.60;;;;;;5043433;28;20040;-69
2022/12/31 04:06:27;;;;;;;1.02;0.60;;;22.60;51.50;;;;;;5036027;28;20455;-70
2022/12/31 04:08:53;;;;;;;1.02;0.50;;;22.60;51.50;;;;;;5049300;28;20036;-69
2022/12/31 04:11:19;;;;;;;0.70;0.50;;;22.50;51.60;;;;;;5052690;28;20025;-71
2022/12/31 04:13:44;;;;;;;0.60;0.50;;;22.50;51.60;;;;;;5053239;28;20083;-70
2022/12/31 04:16:10;;;;;;;1.08;0.55;;;22.50;51.70;;;;;;5053850;28;20027;-70
2022/12/31 04:18:35;;;;;;;0.60;0.40;;;22.50;51.70;;;;;;5041882;28;20048;-69
2022/12/31 04:21:02;;;;;;;0.93;0.50;;;22.50;51.70;;;;;;5052628;28;20452;-69
2022/12/31 04:23:28;;;;;;;0.45;0.40;;;22.50;51.70;;;;;;5049070;28;20040;-70
2022/12/31 04:25:53;;;;;;;0.55;0.40;;;22.50;51.90;;;;;;5033384;28;20039;-70
2022/12/31 04:28:19;;;;;;;0.77;0.70;;;22.40;51.80;;;;;;5038499;28;20040;-70
2022/12/31 04:30:45;;;;;;;0.30;0.30;;;22.40;51.80;;;;;;5050937;28;20048;-70
2022/12/31 04:33:10;;;;;;;0.90;0.60;;;22.40;51.80;;;;;;5041732;28;20025;-71
2022/12/31 04:35:36;;;;;;;0.77;0.60;;;22.40;51.90;;;;;;5052429;28;20051;-70
2022/12/31 04:38:01;;;;;;;0.47;0.30;;;22.40;52.00;;;;;;5054257;28;20081;-70
2022/12/31 04:40:27;;;;;;;1.45;0.50;;;22.30;52.10;;;;;;5053254;28;20072;-70
2022/12/31 04:42:53;;;;;;;0.80;0.50;;;22.30;52.20;;;;;;5050787;28;20556;-71
2022/12/31 04:45:18;;;;;;;0.63;0.50;;;22.30;52.10;;;;;;5056977;28;20051;-71
2022/12/31 04:47:44;;;;;;;0.57;0.45;;;22.30;52.10;;;;;;5053914;28;20052;-71
2022/12/31 04:50:09;;;;;;;0.40;0.40;;;22.30;52.10;;;;;;5050920;28;20097;-70
2022/12/31 04:52:35;;;;;;;0.73;0.50;;;22.30;52.20;;;;;;5046400;28;20018;-70
2022/12/31 04:55:01;;;;;;;0.85;0.50;;;22.30;52.70;;;;;;5049711;28;20021;-69
2022/12/31 04:57:26;;;;;;;0.75;0.50;;;22.30;52.20;;;;;;5050410;28;20022;-69
2022/12/31 04:59:52;;;;;;;0.63;0.38;;;22.20;52.20;;;;;;5055344;28;20032;-69
2022/12/31 05:02:17;;;;;;;0.80;0.50;;;22.20;52.30;;;;;;5049285;28;20483;-71
2022/12/31 05:04:43;;;;;;;0.60;0.50;;;22.20;52.30;;;;;;5047162;28;20091;-69
2022/12/31 05:07:09;;;;;;;0.85;0.50;;;22.20;52.30;;;;;;5041799;28;20039;-70
2022/12/31 05:09:34;;;;;;;1.15;0.50;;;22.20;52.20;;;;;;5050007;28;20021;-69
2022/12/31 05:12:00;;;;;;;0.70;0.50;;;22.20;52.50;;;;;;5051347;28;20037;-71
2022/12/31 05:14:25;;;;;;;0.70;0.50;;;22.20;52.40;;;;;;5036957;28;20025;-70
2022/12/31 05:16:51;;;;;;;0.43;0.40;;;22.10;52.50;;;;;;5050569;28;20049;-70
2022/12/31 05:19:17;;;;;;;0.43;0.43;;;22.10;52.50;;;;;;5036786;28;20055;-70
2022/12/31 05:21:43;;;;;;;0.60;0.50;;;22.10;52.50;;;;;;5046796;28;20445;-70
2022/12/31 05:24:08;;;;;;;0.52;0.40;;;22.10;52.60;;;;;;5042993;28;20393;-70
2022/12/31 05:26:34;;;;;;;0.50;0.50;;;22.10;52.60;;;;;;5038560;28;20407;-69
2022/12/31 05:28:59;;;;;;;0.43;0.40;;;22.10;52.80;;;;;;5047718;28;20036;-70
2022/12/31 05:31:26;;;;;;;0.57;0.52;;;22.10;52.80;;;;;;5048497;28;20528;-69
2022/12/31 05:33:52;;;;;;;0.35;0.35;;;22.10;52.80;;;;;;5052973;28;20020;-71
2022/12/31 05:36:17;;;;;;;0.40;0.40;;;22.10;52.80;;;;;;5038307;28;20372;-70
2022/12/31 05:38:43;;;;;;;0.63;0.50;;;22.10;52.90;;;;;;5043481;28;20040;-70
2022/12/31 05:41:10;;;;;;;0.60;0.50;;;22.10;52.90;;;;;;5053226;28;20047;-70
2022/12/31 05:43:35;;;;;;;0.30;0.30;;;22.10;52.90;;;;;;5052646;28;20029;-70
2022/12/31 05:46:03;;;;;;;0.93;0.50;;;22.10;52.90;;;;;;5050777;28;20022;-70
2022/12/31 05:48:29;;;;;;;0.60;0.57;;;22.00;52.90;;;;;;5050696;28;20025;-71
2022/12/31 05:50:55;;;;;;;0.57;0.38;;;22.00;52.90;;;;;;5053358;28;20021;-70
2022/12/31 05:53:20;;;;;;;0.40;0.40;;;22.00;52.90;;;;;;5048567;28;20037;-70
2022/12/31 05:55:47;;;;;;;0.55;0.45;;;22.00;53.00;;;;;;5042077;28;20078;-70
2022/12/31 05:58:15;;;;;;;0.50;0.40;;;22.00;52.90;;;;;;5051902;28;20494;-70
2022/12/31 06:00:40;;;;;;;0.40;0.40;;;22.00;53.00;;;;;;5031132;28;20033;-70
2022/12/31 06:03:06;;;;;;;0.30;0.30;;;22.00;53.00;;;;;;5051492;28;20023;-70
2022/12/31 06:05:32;;;;;;;0.60;0.40;;;22.00;53.10;;;;;;5045687;28;20025;-70
2022/12/31 06:07:58;;;;;;;0.40;0.30;;;22.00;53.10;;;;;;5061737;28;20029;-71
2022/12/31 06:10:23;;;;;;;0.30;0.30;;;22.00;53.10;;;;;;5063050;28;20021;-70
2022/12/31 06:12:49;;;;;;;0.35;0.35;;;21.90;53.10;;;;;;5066480;28;20021;-71
2022/12/31 06:15:15;;;;;;;0.40;0.40;;;22.00;53.70;;;;;;5036343;28;20037;-70
2022/12/31 06:17:40;;;;;;;0.60;0.40;;;21.90;53.20;;;;;;5046420;28;20492;-71
2022/12/31 06:20:06;;;;;;;0.80;0.40;;;21.90;53.20;;;;;;5056291;28;20021;-70
2022/12/31 06:22:32;;;;;;;0.40;0.40;;;21.90;53.20;;;;;;5060969;28;20036;-70
2022/12/31 06:24:58;;;;;;;0.65;0.40;;;21.90;53.30;;;;;;5040292;28;20499;-70
2022/12/31 06:27:23;;;;;;;0.90;0.50;;;21.90;53.20;;;;;;5045808;28;20033;-70
2022/12/31 06:29:49;;;;;;;0.75;0.50;;;21.90;53.30;;;;;;5048985;28;20528;-70
2022/12/31 06:32:15;;;;;;;0.50;0.50;;;21.90;53.30;;;;;;5031757;28;20028;-70
2022/12/31 06:34:41;;;;;;;0.57;0.50;;;21.90;53.40;;;;;;5051367;28;20480;-70
2022/12/31 06:37:07;;;;;;;0.40;0.30;;;21.80;53.30;;;;;;5043678;28;20021;-70
2022/12/31 06:39:32;;;;;;;0.55;0.50;;;21.80;53.40;;;;;;5038108;28;20440;-70
2022/12/31 06:41:58;;;;;;;0.43;0.40;;;21.80;53.90;;;;;;5052961;28;20414;-70
2022/12/31 06:44:23;;;;;;;1.23;0.50;;;21.80;53.40;;;;;;5046967;28;20378;-70
2022/12/31 06:46:49;;;;;;;0.50;0.50;;;21.80;53.40;;;;;;5046936;28;20033;-70
2022/12/31 06:49:15;;;;;;;0.70;0.50;;;21.80;53.50;;;;;;5053858;28;20488;-69
2022/12/31 06:51:41;;;;;;;0.43;0.40;;;21.80;53.50;;;;;;5058549;28;20025;-70
2022/12/31 06:54:06;;;;;;;0.40;0.40;;;21.80;54.00;;;;;;5052981;28;20021;-71
2022/12/31 06:56:32;;;;;;;0.82;0.60;;;21.80;53.50;;;;;;5041090;28;20052;-69
2022/12/31 06:58:59;;;;;;;1.05;0.60;;;21.80;53.50;;;;;;5050111;28;20032;-71
2022/12/31 07:01:43;;;;;;;0.50;0.40;;;21.80;53.60;;;;;;5049367;28;20026;-69
2022/12/31 07:04:40;;;;;;;0.40;0.40;;;21.80;53.60;;;;;;5059620;28;20082;-71
2022/12/31 07:07:32;;;;;;;0.55;0.40;;;21.80;53.60;;;;;;5023600;28;20039;-70
2022/12/31 07:10:04;;;;;;;0.40;0.40;;;21.80;53.70;;;;;;5055064;28;20028;-70
2022/12/31 07:12:58;;;;;;;0.40;0.40;;;21.80;53.70;;;;;;5052952;28;20026;-71
2022/12/31 07:15:44;;;;;;;0.95;0.40;;;21.80;53.70;;;;;;5058305;28;20528;-71
2022/12/31 07:18:13;;;;;;;0.77;0.50;;;21.80;53.70;;;;;;5051353;28;20026;-71
2022/12/31 07:20:38;;;;;;;0.40;0.40;;;21.70;53.60;;;;;;5031171;28;20115;-70
2022/12/31 07:23:06;;;;;;;0.50;0.47;;;21.70;53.70;;;;;;5050269;28;20441;-70
2022/12/31 07:25:32;;;;;;;0.52;0.43;;;21.70;53.70;;;;;;5051436;28;20021;-70
2022/12/31 07:28:04;;;;;;;0.47;0.40;;;21.70;53.70;;;;;;5060030;28;20028;-69
2022/12/31 07:30:44;;;;;;;0.88;0.55;;;21.70;53.80;;;;;;5058952;28;20025;-71
2022/12/31 07:33:25;;;;;;;0.90;0.50;;;21.70;53.80;;;;;;5056865;28;20070;-72
2022/12/31 07:36:09;;;;;;;0.40;0.40;;;21.70;53.80;;;;;;5056037;28;20025;-72
2022/12/31 07:39:10;;;;;;;0.40;0.40;;;21.70;53.80;;;;;;5056796;28;20024;-71
2022/12/31 07:41:47;;;;;;;0.35;0.35;;;21.70;53.90;;;;;;5055193;28;20029;-71
2022/12/31 07:44:31;;;;;;;0.30;0.30;;;21.70;53.90;;;;;;5041679;28;20028;-72
2022/12/31 07:46:59;;;;;;;0.38;0.38;;;21.70;53.90;;;;;;5058293;28;20492;-71
2022/12/31 07:49:26;;;;;;;0.40;0.40;;;21.70;53.90;;;;;;5046987;28;20104;-71
2022/12/31 07:51:52;;;;;;;0.70;0.50;;;21.70;53.90;;;;;;5042250;28;20467;-72
2022/12/31 07:54:19;;;;;;;0.30;0.30;;;21.60;53.90;;;;;;5039946;28;20028;-72
2022/12/31 07:56:45;;;;;;;0.43;0.30;;;21.70;54.00;;;;;;5047311;28;20024;-72
2022/12/31 07:59:41;;;;;;;0.73;0.40;;;21.70;54.00;;;;;;5050155;28;20108;-72
2022/12/31 08:02:27;;;;;;;0.35;0.35;;;21.60;54.00;;;;;;5030938;28;20029;-72
2022/12/31 08:05:07;;;;;;;0.30;0.30;;;21.60;54.00;;;;;;5039154;28;20028;-72
2022/12/31 08:07:59;;;;;;;0.40;0.40;;;21.60;54.00;;;;;;5052162;28;20037;-72
2022/12/31 08:10:46;;;;;;;0.30;0.30;;;21.60;54.10;;;;;;5054876;28;20526;-72
2022/12/31 08:13:12;;;;;;;0.40;0.35;;;21.60;54.10;;;;;;5044684;28;20025;-72
2022/12/31 08:15:39;;;;;;;0.50;0.40;;;21.60;54.10;;;;;;5057186;28;20028;-72
2022/12/31 08:18:06;;;;;;;0.32;0.30;;;21.60;54.10;;;;;;5053764;28;20033;-72
2022/12/31 08:20:37;;;;;;;0.60;0.40;;;21.60;54.10;;;;;;5057041;28;20549;-72
2022/12/31 08:23:24;;;;;;;0.30;0.30;;;21.60;54.10;;;;;;5061598;28;20035;-72
2022/12/31 08:26:18;;;;;;;0.30;0.30;;;21.60;54.10;;;;;;5042593;28;20071;-72
2022/12/31 08:28:54;;;;;;;0.40;0.40;;;21.60;54.20;;;;;;5044168;28;20476;-72
2022/12/31 08:31:46;;;;;;;0.40;0.40;;;21.60;54.10;;;;;;5048837;28;20481;-71
2022/12/31 08:34:39;;;;;;;0.32;0.32;;;21.60;54.20;;;;;;5008865;28;20082;-70
2022/12/31 08:37:25;;;;;;;0.52;0.40;;;21.60;54.20;;;;;;5055620;28;20021;-70
2022/12/31 08:40:09;;;;;;;0.20;0.20;;;21.60;54.20;;;;;;5049885;28;20032;-71
2022/12/31 08:42:41;;;;;;;0.40;0.40;;;21.50;54.20;;;;;;5052139;28;20036;-70
2022/12/31 08:45:22;;;;;;;0.60;0.50;;;21.50;54.20;;;;;;5053442;28;20029;-72
2022/12/31 08:47:48;;;;;;;0.88;0.40;;;21.50;54.20;;;;;;5050867;28;20112;-70
2022/12/31 08:50:16;;;;;;;0.43;0.43;;;21.60;54.20;;;;;;5037399;28;20120;-71
2022/12/31 08:52:42;;;;;;;0.43;0.40;;;21.50;54.20;;;;;;5057078;28;20017;-71
2022/12/31 08:55:15;;;;;;;0.40;0.40;;;21.50;54.20;;;;;;5056260;28;20425;-72
2022/12/31 08:58:01;;;;;;;0.38;0.30;;;21.50;54.20;;;;;;5045043;28;20104;-71
2022/12/31 09:00:29;;;;;;;0.52;0.32;;;21.50;54.30;;;;;;5051449;28;20029;-71
2022/12/31 09:03:41;;;;;;;0.32;0.32;;;21.50;54.30;;;;;;5049935;28;20120;-71
2022/12/31 09:06:22;;;;;;;0.52;0.40;;;21.50;54.30;;;;;;4942107;28;20507;-72
2022/12/31 09:08:57;;;;;;;0.50;0.32;;;21.50;54.30;;;;;;5040433;28;20037;-71
2022/12/31 09:12:04;;;;;;;0.73;0.52;;;21.50;54.30;;;;;;5050324;28;20021;-71
2022/12/31 09:15:06;;;;;;;0.52;0.47;;;21.50;54.30;;;;;;5027857;28;20036;-71
2022/12/31 09:17:37;;;;;;;0.45;0.43;;;21.50;54.40;;;;;;5047510;28;20025;-71
2022/12/31 09:20:04;;;;;;;0.60;0.50;;;21.50;54.40;;;;;;5036340;28;20032;-70
2022/12/31 09:22:30;;;;;;;0.90;0.60;;;21.50;54.40;;;;;;5042862;28;20220;-71
2022/12/31 09:24:56;;;;;;;0.50;0.43;;;21.50;54.40;;;;;;5050669;28;20025;-71
2022/12/31 09:27:32;;;;;;;0.50;0.38;;;21.50;54.40;;;;;;5046952;28;20154;-70
2022/12/31 09:30:03;;;;;;;0.50;0.50;;;21.50;54.40;;;;;;5053649;28;20040;-70
2022/12/31 09:32:59;;;;;;;0.52;0.45;;;21.50;54.40;;;;;;5054188;28;20017;-70
2022/12/31 09:35:48;;;;;;;0.45;0.45;;;21.50;54.40;;;;;;5049514;28;20499;-71
2022/12/31 09:38:35;;;;;;;0.50;0.40;;;21.50;54.50;;;;;;5044100;28;20052;-72
2022/12/31 09:41:28;;;;;;;1.95;0.60;;;21.40;54.50;;;;;;5061359;28;20298;-72
2022/12/31 09:44:18;;;;;;;0.65;0.50;;;21.40;54.50;;;;;;5060757;28;20024;-69
2022/12/31 09:46:46;;;;;;;1.13;0.63;;;21.50;54.50;;;;;;5057050;28;20112;-71
2022/12/31 09:49:30;;;;;;;0.57;0.45;;;21.40;54.50;;;;;;5045683;28;20523;-69
2022/12/31 09:51:58;;;;;;;1.48;0.60;;;21.40;54.50;;;;;;5030824;28;20118;-70
2022/12/31 09:54:39;;;;;;;0.75;0.50;;;21.40;54.50;;;;;;5044849;28;20115;-71
2022/12/31 09:57:13;;;;;;;0.82;0.50;;;21.40;54.50;;;;;;5054845;28;20029;-71
2022/12/31 09:59:44;;;;;;;2.00;0.60;;;21.40;54.50;;;;;;5048637;28;20025;-71
2022/12/31 10:02:37;;;;;;;1.35;0.70;;;21.40;54.50;;;;;;5050527;28;20034;-71
2022/12/31 10:05:36;;;;;;;1.20;0.60;;;21.40;54.50;;;;;;5045327;28;20557;-71
2022/12/31 10:08:16;;;;;;;0.90;0.50;;;21.40;54.50;;;;;;5059121;28;20044;-71
2022/12/31 10:10:54;;;;;;;0.90;0.50;;;21.40;54.50;;;;;;5059322;28;20061;-70
2022/12/31 10:13:31;;;;;;;0.93;0.60;;;21.40;54.50;;;;;;5064281;28;20059;-71
2022/12/31 10:16:11;;;;;;;2.28;0.60;;;21.40;54.60;;;;;;5054495;28;20100;-71
2022/12/31 10:19:11;;;;;;;2.00;0.70;;;21.40;54.60;;;;;;5025762;28;20072;-71
2022/12/31 10:22:04;;;;;;;0.70;0.50;;;21.40;54.60;;;;;;5055075;28;20032;-71
2022/12/31 10:25:04;;;;;;;0.80;0.50;;;21.40;54.60;;;;;;5056857;28;20033;-70
2022/12/31 10:27:51;;;;;;;0.68;0.60;;;21.40;54.60;;;;;;5059199;28;20064;-69
2022/12/31 10:30:22;;;;;;;0.50;0.50;;;21.40;54.60;;;;;;5052185;28;20434;-69
2022/12/31 10:33:07;;;;;;;0.60;0.60;;;21.40;54.60;;;;;;5045516;28;20049;-70
2022/12/31 10:35:45;;;;;;;1.42;0.63;;;21.40;54.70;;;;;;5050175;28;20040;-69
2022/12/31 10:38:37;;;;;;;1.40;0.60;;;21.30;54.60;;;;;;5059306;28;20453;-69
2022/12/31 10:41:11;;;;;;;1.20;0.60;;;21.30;54.70;;;;;;5057698;28;20025;-69
2022/12/31 10:44:04;;;;;;;1.10;0.60;;;21.30;54.60;;;;;;5050655;28;20029;-69
2022/12/31 10:46:55;;;;;;;2.28;0.60;;;21.30;54.70;;;;;;5026843;28;20032;-69
2022/12/31 10:49:45;;;;;;;0.80;0.60;;;21.30;54.70;;;;;;5051431;28;20484;-71
2022/12/31 10:52:28;;;;;;;;;;;21.30;54.70;;;;;;5060535;28;20032;-70
2022/12/31 10:55:24;;;;;;;1.35;0.70;;;21.30;54.70;;;;;;5037584;28;20055;-70
2022/12/31 10:58:28;;;;;;;2.35;0.70;;;21.30;54.70;;;;;;5050964;28;20030;-69
2022/12/31 11:01:12;;;;;;;2.38;0.80;;;21.30;54.80;;;;;;5051856;28;20031;-71
2022/12/31 11:04:02;;;;;;;2.22;0.80;;;21.30;55.40;;;;;;5045623;28;20075;-70
2022/12/31 11:06:34;;;;;;;1.42;0.73;;;21.30;54.90;;;;;;5051530;28;20115;-69
2022/12/31 11:09:27;;;;;;;1.55;0.80;;;21.30;55.00;;;;;;5046520;28;20386;-69
2022/12/31 11:11:58;;;;;;;1.65;0.80;;;21.30;55.00;;;;;;5065207;28;20103;-70
2022/12/31 11:14:55;;;;;;;1.80;0.90;;;21.30;55.00;;;;;;5045960;28;20032;-69
2022/12/31 11:17:51;;;;;;;3.22;1.38;;;21.30;55.10;;;;;;5034587;28;20566;-70
2022/12/31 11:20:38;;;;;;;1.90;0.90;;;21.30;55.10;;;;;;5048114;28;20025;-70
2022/12/31 11:23:33;;;;;;;2.53;1.00;;;21.30;55.10;;;;;;5045617;28;20051;-69
2022/12/31 11:26:23;;;;;;;1.73;0.90;;;21.30;55.20;;;;;;5057698;28;20025;-69
2022/12/31 11:29:10;;;;;;;3.25;1.17;;;21.30;55.20;;;;;;5058004;28;20505;-70
2022/12/31 11:31:57;;;;;;;2.78;1.10;;;21.30;55.20;;;;;;5054709;28;20025;-71
2022/12/31 11:34:41;;;;;;;2.50;1.00;;;21.30;55.30;;;;;;5051700;28;20030;-70
2022/12/31 11:37:28;;;;;;;1.92;1.00;;;21.30;55.20;;;;;;5046187;28;20025;-70
2022/12/31 11:40:12;;;;;;;2.47;1.20;;;21.30;55.30;;;;;;5041088;28;20021;-71
2022/12/31 11:43:03;;;;;;;3.03;1.20;;;21.30;55.30;;;;;;5052407;28;20028;-69
2022/12/31 11:45:46;;;;;;;2.45;1.15;;;21.30;55.30;;;;;;5052714;28;20480;-69
2022/12/31 11:48:42;;;;;;;2.05;1.10;;;21.30;55.40;;;;;;5050789;28;20565;-70
2022/12/31 11:51:22;;;;;;;2.10;1.08;;;21.30;55.40;;;;;;5021249;28;20480;-70
2022/12/31 11:54:01;;;;;;;2.35;1.02;;;21.30;55.30;;;;;;5052881;28;20073;-69
2022/12/31 11:56:37;;;;;;;2.20;1.02;;;21.20;55.30;;;;;;5043815;28;20443;-69
2022/12/31 11:59:09;;;;;;;2.70;1.35;;;21.20;55.40;;;;;;5049550;28;20036;-69
2022/12/31 12:02:03;;;;;;;2.30;1.08;;;21.30;55.90;;;;;;5040350;28;20025;-70
2022/12/31 12:04:31;;;;;;;2.95;1.35;;;21.20;55.30;;;;;;5049760;28;20366;-70
2022/12/31 12:07:00;;;;;;;2.55;1.10;;;21.20;55.90;;;;;;5046326;28;20076;-71
2022/12/31 12:09:29;;;;;;;2.55;1.33;;;21.20;55.40;;;;;;5047928;28;20507;-70
2022/12/31 12:12:04;;;;;;;3.38;1.50;;;21.20;55.40;;;;;;5047273;28;20029;-69
2022/12/31 12:14:34;;;;;;;2.88;1.38;;;21.20;55.40;;;;;;5027803;28;20029;-71
2022/12/31 12:17:00;;;;;;;3.80;1.27;;;21.20;55.40;;;;;;5046815;28;20469;-69
2022/12/31 12:19:29;;;;;;;3.67;1.63;;;21.20;55.40;;;;;;5055094;28;20104;-70
2022/12/31 12:21:55;;;;;;;3.17;1.35;;;21.20;55.90;;;;;;5057356;28;20036;-71
2022/12/31 12:24:25;;;;;;;2.35;1.20;;;21.20;55.40;;;;;;5051245;28;20044;-70
2022/12/31 12:26:54;;;;;;;2.75;1.30;;;21.20;55.40;;;;;;5052308;28;20090;-70
2022/12/31 12:29:33;;;;;;;2.38;1.20;;;21.20;55.40;;;;;;5053721;28;20029;-70
2022/12/31 12:32:03;;;;;;;3.17;1.48;;;21.20;55.40;;;;;;5046757;28;20079;-70
2022/12/31 12:34:37;;;;;;;;;;;21.20;55.40;;;;;;5054465;28;20105;-70
2022/12/31 12:37:04;;;;;;;3.72;1.50;;;21.20;55.40;;;;;;5044755;28;19916;-71
2022/12/31 12:39:33;;;;;;;2.70;1.30;;;21.20;55.40;;;;;;5051170;28;20021;-70
2022/12/31 12:42:03;;;;;;;2.90;1.50;;;21.20;55.40;;;;;;5045062;28;20033;-71
2022/12/31 12:44:30;;;;;;;3.10;1.40;;;21.20;55.40;;;;;;5045449;28;20078;-70
2022/12/31 12:46:57;;;;;;;3.50;1.70;;;21.20;55.40;;;;;;5052849;28;20086;-70
2022/12/31 12:49:58;;;;;;;3.05;1.45;;;21.20;55.40;;;;;;5053257;28;20027;-70
2022/12/31 12:52:45;;;;;;;4.13;1.65;;;21.20;55.50;;;;;;5006438;28;20142;-69
2022/12/31 12:55:35;;;;;;;3.13;1.48;;;21.20;55.50;;;;;;5035040;28;20029;-70
2022/12/31 12:58:40;;;;;;;5.05;2.08;;;21.20;55.50;;;;;;5053230;28;20365;-69
2022/12/31 13:01:38;;;;;;;4.13;1.67;;;21.20;55.50;;;;;;5048375;28;20029;-70
2022/12/31 13:04:55;;;;;;;4.28;2.00;;;21.20;56.00;;;;;;5046730;28;20484;-70
2022/12/31 13:07:41;;;;;;;3.38;1.88;;;21.20;55.50;;;;;;4955509;28;20035;-70
2022/12/31 13:10:32;;;;;;;5.25;2.00;;;21.20;55.50;;;;;;4954129;28;20114;-71
2022/12/31 13:13:28;;;;;;;5.07;1.90;;;21.20;55.60;;;;;;5037539;28;20037;-70
2022/12/31 13:16:09;;;;;;;4.00;2.00;;;21.20;55.60;;;;;;5053201;28;20533;-70
2022/12/31 13:18:43;;;;;;;3.95;1.95;;;21.20;55.60;;;;;;5056214;28;20385;-70
2022/12/31 13:21:31;;;;;;;5.30;2.30;;;21.20;55.60;;;;;;5050306;28;20029;-71
2022/12/31 13:24:23;;;;;;;5.22;2.22;;;21.20;55.60;;;;;;5048767;28;20033;-69
2022/12/31 13:27:14;;;;;;;4.35;1.98;;;21.20;55.60;;;;;;5009374;28;20403;-70
2022/12/31 13:29:43;;;;;;;4.03;2.10;;;21.20;55.60;;;;;;5034796;28;20030;-70
2022/12/31 13:32:15;;;;;;;4.43;2.00;;;21.20;55.60;;;;;;5055824;28;20023;-69
2022/12/31 13:34:45;;;;;;;4.32;2.10;;;21.20;55.60;;;;;;5052532;28;20625;-71
2022/12/31 13:37:35;;;;;;;4.45;1.98;;;21.20;55.70;;;;;;5054179;28;20099;-71